Time;durP1;ratioP1;P1;durP2;ratioP2;P2;SDS_P1;SDS_P2;PMS_P1;PMS_P2;Temp;Humidity;BMP_temperature;BMP_pressure;BME280_temperature;BME280_humidity;BME280_pressure;Samples;Min_cycle;Max_cycle;Signal;HPM_P1;HPM_P2
2023/08/14 09:41:07;;;;;;;;;;;;;;;;;;1643201;23;94562;-89
2023/08/14 11:41:26;;;;;;;;;;;;;;;;;;5543799;23;94891;-79
2023/08/14 11:43:56;;;;;;;;;;;;;;;;;;4916019;28;124304;-79
2023/08/14 11:46:24;;;;;;;;;;;;;;;;;;4904353;28;106711;-79
2023/08/14 11:48:51;;;;;;;;;;;;;;;;;;4911777;28;120659;-79
2023/08/14 11:51:17;;;;;;;;;;;;;;;;;;4920329;28;105467;-79
2023/08/14 11:53:44;;;;;;;;;;;;;;;;;;4901826;28;121943;-80
2023/08/14 11:56:10;;;;;;;;;;;;;;;;;;4917454;28;122478;-79
2023/08/14 11:58:37;;;;;;;;;;;;;;;;;;4914163;28;112282;-79
2023/08/14 12:01:03;;;;;;;;;;;;;;;;;;4917307;28;120676;-79
2023/08/14 12:03:30;;;;;;;;;;;;;;;;;;4902743;28;122573;-79
2023/08/14 12:05:56;;;;;;;;;;;;;;;;;;4915036;28;115603;-80
2023/08/14 12:08:22;;;;;;;;;;;;;;;;;;4919777;28;105085;-80
2023/08/14 12:10:49;;;;;;;;;;;;;;;;;;4922116;28;122381;-79
2023/08/14 12:13:15;;;;;;;;;;;;;;;;;;4920022;28;120366;-80
2023/08/14 12:15:42;;;;;;;;;;;;;;;;;;4914710;28;113264;-79
2023/08/14 12:18:08;;;;;;;;;;;;;;;;;;4919149;28;117673;-79
2023/08/14 12:20:34;;;;;;;;;;;;;;;;;;4919199;28;104458;-79
2023/08/14 12:23:01;;;;;;;;;;;;;;;;;;4893022;28;103355;-79
2023/08/14 12:25:27;;;;;;;;;;;;;;;;;;4891876;28;116385;-79
2023/08/14 12:27:58;;;;;;;;;;;;;;;;;;4911780;28;120632;-78
2023/08/14 12:30:25;;;;;;;;;;;;;;;;;;4916326;28;92073;-78
2023/08/14 12:32:51;;;;;;;;;;;;;;;;;;4923723;28;91920;-78
2023/08/14 12:35:17;;;;;;;;;;;;;;;;;;4895757;28;100790;-78
2023/08/14 12:37:44;;;;;;;;;;;;;;;;;;4895461;28;117606;-78
2023/08/14 12:40:10;;;;;;;;;;;;;;;;;;4917521;28;91981;-78
2023/08/14 12:42:37;;;;;;;;;;;;;;;;;;4911596;28;122341;-79
2023/08/14 12:45:04;;;;;;;;;;;;;;;;;;4920073;28;117585;-79
2023/08/14 12:47:30;;;;;;;;;;;;;;;;;;4921869;28;91496;-79
2023/08/14 12:49:57;;;;;;;;;;;;;;;;;;4905375;28;123661;-79
2023/08/14 12:52:23;;;;;;;;;;;;;;;;;;4911359;28;92353;-79
2023/08/14 12:54:51;;;;;;;;;;;;;;;;;;4913414;28;120527;-80
2023/08/14 12:57:30;;;;;;;;;;;;;;;;;;4903589;28;92268;-80
2023/08/14 12:59:56;;;;;;;;;;;;;;;;;;4920922;28;118357;-79
2023/08/14 13:02:23;;;;;;;;;;;;;;;;;;4900957;28;121439;-80
2023/08/14 13:04:50;;;;;;;;;;;;;;;;;;4920691;28;113061;-79
2023/08/14 13:07:18;;;;;;;;;;;;;;;;;;4917994;28;120729;-80
2023/08/14 13:09:45;;;;;;;;;;;;;;;;;;4902761;28;104449;-83
2023/08/14 13:12:11;;;;;;;;;;;;;;;;;;4885032;28;112664;-83
2023/08/14 13:14:38;;;;;;;;;;;;;;;;;;4924194;28;111863;-83
2023/08/14 13:17:04;;;;;;;;;;;;;;;;;;4925470;28;105134;-83
2023/08/14 13:19:31;;;;;;;;;;;;;;;;;;4920792;28;121835;-82
2023/08/14 13:21:57;;;;;;;;;;;;;;;;;;4895606;28;122378;-82
2023/08/14 13:24:23;;;;;;;;;;;;;;;;;;4919847;28;117770;-81
2023/08/14 13:26:50;;;;;;;;;;;;;;;;;;4894464;28;115916;-80
2023/08/14 13:29:17;;;;;;;;;;;;;;;;;;4924626;28;117775;-79
2023/08/14 13:31:44;;;;;;;;;;;;;;;;;;4917146;28;91601;-79
2023/08/14 13:34:10;;;;;;;;;;;;;;;;;;4919618;28;120578;-80
2023/08/14 13:36:37;;;;;;;;;;;;;;;;;;4912256;28;102117;-79
2023/08/14 13:39:03;;;;;;;;;;;;;;;;;;4907311;28;115365;-79
2023/08/14 13:41:29;;;;;;;;;;;;;;;;;;4907420;28;120864;-80
2023/08/14 13:43:56;;;;;;;;;;;;;;;;;;4920781;28;114886;-80
2023/08/14 13:46:22;;;;;;;;;;;;;;;;;;4909112;28;97130;-80
2023/08/14 13:48:48;;;;;;;;;;;;;;;;;;4920925;28;121866;-80
2023/08/14 13:51:15;;;;;;;;;;;;;;;;;;4902883;28;97050;-80
2023/08/14 13:53:41;;;;;;;;;;;;;;;;;;4908427;28;120460;-80
2023/08/14 13:56:08;;;;;;;;;;;;;;;;;;4908347;28;92055;-80
2023/08/14 13:58:34;;;;;;;;;;;;;;;;;;4918431;28;116190;-80
2023/08/14 14:01:01;;;;;;;;;;;;;;;;;;4898548;28;119263;-81
2023/08/14 14:03:28;;;;;;;;;;;;;;;;;;4908583;28;116048;-80
2023/08/14 14:05:55;;;;;;;;;;;;;;;;;;4901843;28;120451;-80
2023/08/14 14:08:21;;;;;;;;;;;;;;;;;;4902860;28;94388;-80
2023/08/14 14:10:47;;;;;;;;;;;;;;;;;;4892660;28;117660;-80
2023/08/14 14:13:14;;;;;;;;;;;;;;;;;;4918092;28;120729;-80
2023/08/14 14:15:40;;;;;;;;;;;;;;;;;;4920962;28;122417;-80
2023/08/14 14:18:07;;;;;;;;;;;;;;;;;;4910649;28;91613;-81
2023/08/14 14:20:33;;;;;;;;;;;;;;;;;;4909438;28;101164;-80
2023/08/14 14:22:59;;;;;;;;;;;;;;;;;;4924068;28;116345;-80
2023/08/14 14:25:26;;;;;;;;;;;;;;;;;;4894162;28;91948;-80
2023/08/14 14:27:53;;;;;;;;;;;;;;;;;;4934195;28;121047;-81
2023/08/14 14:30:19;;;;;;;;;;;;;;;;;;4906157;28;92063;-81
2023/08/14 14:32:46;;;;;;;;;;;;;;;;;;4923646;28;94040;-81
2023/08/14 14:35:13;;;;;;;;;;;;;;;;;;4920754;28;121028;-81
2023/08/14 14:37:40;;;;;;;;;;;;;;;;;;4922324;28;117420;-81
2023/08/14 14:40:07;;;;;;;;;;;;;;;;;;4893495;28;93675;-81
2023/08/14 14:42:34;;;;;;;;;;;;;;;;;;4925858;28;122906;-81
2023/08/14 14:45:00;;;;;;;;;;;;;;;;;;4931188;28;100847;-81
2023/08/14 14:47:26;;;;;;;;;;;;;;;;;;4931415;28;120865;-81
2023/08/14 14:49:53;;;;;;;;;;;;;;;;;;4921781;28;112572;-81
2023/08/14 14:52:19;;;;;;;;;;;;;;;;;;4907049;28;119692;-81
2023/08/14 14:54:45;;;;;;;;;;;;;;;;;;4892101;28;122471;-79
2023/08/14 14:57:12;;;;;;;;;;;;;;;;;;4918368;28;117590;-78
2023/08/14 14:59:38;;;;;;;;;;;;;;;;;;4921733;28;91942;-79
2023/08/14 15:02:05;;;;;;;;;;;;;;;;;;4891184;28;94921;-81
2023/08/14 15:04:45;;;;;;;;;;;;;;;;;;4924069;28;117685;-81
2023/08/14 15:07:11;;;;;;;;;;;;;;;;;;4901471;28;123312;-81
2023/08/14 15:09:38;;;;;;;;;;;;;;;;;;4913229;28;116397;-81
2023/08/14 15:12:04;;;;;;;;;;;;;;;;;;4916855;28;94048;-81
2023/08/14 15:14:31;;;;;;;;;;;;;;;;;;4894912;28;122825;-81
2023/08/14 15:16:57;;;;;;;;;;;;;;;;;;4911524;28;117761;-81
2023/08/14 15:19:26;;;;;;;;;;;;;;;;;;4883460;28;120509;-81
2023/08/14 15:21:52;;;;;;;;;;;;;;;;;;4903064;28;93190;-81
2023/08/14 15:24:19;;;;;;;;;;;;;;;;;;4920173;28;116398;-81
2023/08/14 15:26:45;;;;;;;;;;;;;;;;;;4922069;28;119648;-81
2023/08/14 15:29:11;;;;;;;;;;;;;;;;;;4920731;28;116383;-81
2023/08/14 15:31:38;;;;;;;;;;;;;;;;;;4902514;28;94042;-82
2023/08/14 15:34:05;;;;;;;;;;;;;;;;;;4901822;28;124727;-81
2023/08/14 15:36:32;;;;;;;;;;;;;;;;;;4919093;28;116187;-81
2023/08/14 15:38:58;;;;;;;;;;;;;;;;;;4887717;28;100047;-82
2023/08/14 15:41:24;;;;;;;;;;;;;;;;;;4913654;28;122389;-81
2023/08/14 15:43:51;;;;;;;;;;;;;;;;;;4920956;28;109624;-81
2023/08/14 15:46:17;;;;;;;;;;;;;;;;;;4910419;28;121958;-82
2023/08/14 15:48:44;;;;;;;;;;;;;;;;;;4922008;28;122927;-81
2023/08/14 15:51:11;;;;;;;;;;;;;;;;;;4904035;28;92495;-81
2023/08/14 15:53:37;;;;;;;;;;;;;;;;;;4926399;28;120867;-81
2023/08/14 15:56:04;;;;;;;;;;;;;;;;;;4918909;28;99663;-80
2023/08/14 15:58:30;;;;;;;;;;;;;;;;;;4914064;28;121728;-80
2023/08/14 16:00:57;;;;;;;;;;;;;;;;;;4885519;28;112385;-80
2023/08/14 16:03:24;;;;;;;;;;;;;;;;;;4887970;28;112754;-81
2023/08/14 16:05:50;;;;;;;;;;;;;;;;;;4918652;28;120620;-80
2023/08/14 16:08:16;;;;;;;;;;;;;;;;;;4897015;28;118408;-80
2023/08/14 16:10:43;;;;;;;;;;;;;;;;;;4914617;28;117600;-79
2023/08/14 16:13:09;;;;;;;;;;;;;;;;;;4918473;28;106273;-80
2023/08/14 16:15:36;;;;;;;;;;;;;;;;;;4901669;28;91656;-80
2023/08/14 16:18:02;;;;;;;;;;;;;;;;;;4914792;28;120450;-79
2023/08/14 16:20:29;;;;;;;;;;;;;;;;;;4909525;28;103769;-79
2023/08/14 16:22:55;;;;;;;;;;;;;;;;;;4916510;28;117432;-79
2023/08/14 16:25:21;;;;;;;;;;;;;;;;;;4906693;28;91955;-79
2023/08/14 16:27:48;;;;;;;;;;;;;;;;;;4917801;28;121112;-79
2023/08/14 16:30:14;;;;;;;;;;;;;;;;;;4919073;28;91617;-79
2023/08/14 16:32:41;;;;;;;;;;;;;;;;;;4919302;28;122145;-78
2023/08/14 16:35:08;;;;;;;;;;;;;;;;;;4896358;28;117224;-79
2023/08/14 16:37:36;;;;;;;;;;;;;;;;;;4921212;28;121832;-79
2023/08/14 16:40:03;;;;;;;;;;;;;;;;;;4915992;28;92082;-79
2023/08/14 16:42:29;;;;;;;;;;;;;;;;;;4916802;28;116180;-79
2023/08/14 16:44:55;;;;;;;;;;;;;;;;;;4897469;28;110903;-79
2023/08/14 16:47:22;;;;;;;;;;;;;;;;;;4919126;28;121087;-79
2023/08/14 16:49:49;;;;;;;;;;;;;;;;;;4896797;28;116464;-80
2023/08/14 16:52:15;;;;;;;;;;;;;;;;;;4927517;28;95000;-79
2023/08/14 16:54:42;;;;;;;;;;;;;;;;;;4924283;28;116250;-80
2023/08/14 16:57:09;;;;;;;;;;;;;;;;;;4916680;28;114553;-80
2023/08/14 16:59:35;;;;;;;;;;;;;;;;;;4924174;28;92876;-79
2023/08/14 17:02:01;;;;;;;;;;;;;;;;;;4916463;28;117631;-79
2023/08/14 17:04:28;;;;;;;;;;;;;;;;;;4924314;28;120899;-80
2023/08/14 17:06:54;;;;;;;;;;;;;;;;;;4923519;28;121357;-79
2023/08/14 17:09:21;;;;;;;;;;;;;;;;;;4918577;28;115719;-79
2023/08/14 17:11:47;;;;;;;;;;;;;;;;;;4921467;28;121730;-79
2023/08/14 17:14:15;;;;;;;;;;;;;;;;;;4926141;28;120626;-81
2023/08/14 17:16:42;;;;;;;;;;;;;;;;;;4910940;28;109584;-79
2023/08/14 17:19:08;;;;;;;;;;;;;;;;;;4911591;28;122520;-79
2023/08/14 17:21:35;;;;;;;;;;;;;;;;;;4922205;28;118144;-78
2023/08/14 17:24:01;;;;;;;;;;;;;;;;;;4926964;28;121943;-79
2023/08/14 17:26:28;;;;;;;;;;;;;;;;;;4926372;28;107524;-78
2023/08/14 17:28:54;;;;;;;;;;;;;;;;;;4920981;28;117697;-78
2023/08/14 17:31:22;;;;;;;;;;;;;;;;;;4914108;28;92058;-79
2023/08/14 17:33:48;;;;;;;;;;;;;;;;;;4897753;28;92906;-79
2023/08/14 17:36:14;;;;;;;;;;;;;;;;;;4914970;28;92193;-78
2023/08/14 17:38:41;;;;;;;;;;;;;;;;;;4880944;28;121181;-79
2023/08/14 17:41:07;;;;;;;;;;;;;;;;;;4901319;28;117943;-78
2023/08/14 17:43:34;;;;;;;;;;;;;;;;;;4915560;28;108328;-78
2023/08/14 17:46:00;;;;;;;;;;;;;;;;;;4919647;28;122739;-79
2023/08/14 17:48:26;;;;;;;;;;;;;;;;;;4910944;28;93261;-79
2023/08/14 17:50:53;;;;;;;;;;;;;;;;;;4915409;28;121930;-79
2023/08/14 17:53:19;;;;;;;;;;;;;;;;;;4887062;28;120795;-78
2023/08/14 17:55:46;;;;;;;;;;;;;;;;;;4915423;28;117064;-79
2023/08/14 17:58:12;;;;;;;;;;;;;;;;;;4898062;28;122995;-79
2023/08/14 18:00:38;;;;;;;;;;;;;;;;;;4898714;28;94726;-80
2023/08/14 18:03:06;;;;;;;;;;;;;;;;;;4904761;28;105605;-79
2023/08/14 18:05:32;;;;;;;;;;;;;;;;;;4919941;28;121143;-78
2023/08/14 18:07:58;;;;;;;;;;;;;;;;;;4919677;28;104924;-79
2023/08/14 18:10:25;;;;;;;;;;;;;;;;;;4900099;28;121748;-78
2023/08/14 18:12:51;;;;;;;;;;;;;;;;;;4894705;28;121424;-78
2023/08/14 18:15:18;;;;;;;;;;;;;;;;;;4914958;28;92074;-78
2023/08/14 18:17:44;;;;;;;;;;;;;;;;;;4920307;28;120651;-79
2023/08/14 18:20:11;;;;;;;;;;;;;;;;;;4926000;28;92014;-78
2023/08/14 18:22:37;;;;;;;;;;;;;;;;;;4921556;28;120602;-78
2023/08/14 18:25:03;;;;;;;;;;;;;;;;;;4903583;28;109033;-78
2023/08/14 18:27:30;;;;;;;;;;;;;;;;;;4909993;28;115883;-78
2023/08/14 18:29:56;;;;;;;;;;;;;;;;;;4902603;28;103700;-80
2023/08/14 18:32:22;;;;;;;;;;;;;;;;;;4911202;28;104672;-79
2023/08/14 18:34:49;;;;;;;;;;;;;;;;;;4917681;28;102279;-80
2023/08/14 18:37:15;;;;;;;;;;;;;;;;;;4897640;28;121870;-79
2023/08/14 18:39:41;;;;;;;;;;;;;;;;;;4906697;28;104108;-79
2023/08/14 18:42:08;;;;;;;;;;;;;;;;;;4913895;28;120465;-78
2023/08/14 18:44:34;;;;;;;;;;;;;;;;;;4911881;28;100474;-79
2023/08/14 18:47:01;;;;;;;;;;;;;;;;;;4914726;28;117064;-79
2023/08/14 18:49:27;;;;;;;;;;;;;;;;;;4907496;28;122041;-79
2023/08/14 18:51:54;;;;;;;;;;;;;;;;;;4906716;28;95973;-79
2023/08/14 18:54:20;;;;;;;;;;;;;;;;;;4910122;28;92177;-80
2023/08/14 18:56:47;;;;;;;;;;;;;;;;;;4920077;28;123054;-79
2023/08/14 18:59:14;;;;;;;;;;;;;;;;;;4914318;28;92943;-78
2023/08/14 19:01:40;;;;;;;;;;;;;;;;;;4912551;28;116257;-78
2023/08/14 19:04:07;;;;;;;;;;;;;;;;;;4900017;28;94914;-78
2023/08/14 19:06:33;;;;;;;;;;;;;;;;;;4907369;28;118220;-78
2023/08/14 19:09:00;;;;;;;;;;;;;;;;;;4899885;28;103028;-78
2023/08/14 19:11:26;;;;;;;;;;;;;;;;;;4920332;28;92828;-79
2023/08/14 19:13:52;;;;;;;;;;;;;;;;;;4921561;28;91935;-78
2023/08/14 19:16:19;;;;;;;;;;;;;;;;;;4912685;28;91901;-78
2023/08/14 19:18:46;;;;;;;;;;;;;;;;;;4902456;28;122432;-78
2023/08/14 19:21:14;;;;;;;;;;;;;;;;;;4891175;28;113222;-78
2023/08/14 19:23:40;;;;;;;;;;;;;;;;;;4924475;28;103342;-78
2023/08/14 19:26:07;;;;;;;;;;;;;;;;;;4903399;28;116296;-79
2023/08/14 19:28:47;;;;;;;;;;;;;;;;;;4906203;28;121530;-78
2023/08/14 19:31:14;;;;;;;;;;;;;;;;;;4920436;28;116431;-78
2023/08/14 19:33:40;;;;;;;;;;;;;;;;;;4921287;28;117424;-79
2023/08/14 19:36:06;;;;;;;;;;;;;;;;;;4919991;28;120663;-79
2023/08/14 19:38:33;;;;;;;;;;;;;;;;;;4902463;28;122980;-79
2023/08/14 19:40:59;;;;;;;;;;;;;;;;;;4920975;28;97665;-79
2023/08/14 19:43:26;;;;;;;;;;;;;;;;;;4921997;28;120234;-79
2023/08/14 19:45:52;;;;;;;;;;;;;;;;;;4924375;28;109448;-79
2023/08/14 19:48:18;;;;;;;;;;;;;;;;;;4921488;28;121873;-79
2023/08/14 19:50:45;;;;;;;;;;;;;;;;;;4923041;28;102396;-79
2023/08/14 19:53:12;;;;;;;;;;;;;;;;;;4912680;28;116387;-79
2023/08/14 19:55:38;;;;;;;;;;;;;;;;;;4923327;28;120431;-79
2023/08/14 19:58:04;;;;;;;;;;;;;;;;;;4922024;28;92727;-79
2023/08/14 20:00:31;;;;;;;;;;;;;;;;;;4913818;28;116918;-79
2023/08/14 20:02:57;;;;;;;;;;;;;;;;;;4922942;28;120643;-78
2023/08/14 20:05:23;;;;;;;;;;;;;;;;;;4902465;28;102884;-78
2023/08/14 20:07:50;;;;;;;;;;;;;;;;;;4907189;28;117348;-78
2023/08/14 20:10:16;;;;;;;;;;;;;;;;;;4921563;28;121087;-79
2023/08/14 20:12:43;;;;;;;;;;;;;;;;;;4930515;28;92634;-78
2023/08/14 20:15:09;;;;;;;;;;;;;;;;;;4907343;28;118401;-78
2023/08/14 20:17:36;;;;;;;;;;;;;;;;;;4922383;28;121197;-78
2023/08/14 20:20:04;;;;;;;;;;;;;;;;;;4921711;28;116332;-78
2023/08/14 20:22:31;;;;;;;;;;;;;;;;;;4925476;28;121904;-79
2023/08/14 20:24:59;;;;;;;;;;;;;;;;;;4909603;28;115870;-82
2023/08/14 20:27:26;;;;;;;;;;;;;;;;;;4926858;28;91753;-84
2023/08/14 20:29:52;;;;;;;;;;;;;;;;;;4914315;28;120951;-83
2023/08/14 20:32:22;;;;;;;;;;;;;;;;;;4931259;28;116149;-84
2023/08/14 20:34:48;;;;;;;;;;;;;;;;;;4902799;28;121904;-83
2023/08/14 20:37:15;;;;;;;;;;;;;;;;;;4929084;28;121121;-81
2023/08/14 20:39:43;;;;;;;;;;;;;;;;;;4913270;28;116653;-84
2023/08/14 20:42:10;;;;;;;;;;;;;;;;;;4890634;28;119811;-84
2023/08/14 20:44:37;;;;;;;;;;;;;;;;;;4931090;28;113783;-83
2023/08/14 20:47:03;;;;;;;;;;;;;;;;;;4922582;28;91982;-79
2023/08/14 20:49:30;;;;;;;;;;;;;;;;;;4918554;28;120397;-78
2023/08/14 20:51:56;;;;;;;;;;;;;;;;;;4914778;28;92106;-79
2023/08/14 20:54:22;;;;;;;;;;;;;;;;;;4897383;28;120671;-79
2023/08/14 20:56:49;;;;;;;;;;;;;;;;;;4921925;28;92801;-79
2023/08/14 20:59:15;;;;;;;;;;;;;;;;;;4908171;28;98992;-79
2023/08/14 21:01:41;;;;;;;;;;;;;;;;;;4919079;28;121959;-79
2023/08/14 21:04:08;;;;;;;;;;;;;;;;;;4924957;28;101159;-79
2023/08/14 21:06:34;;;;;;;;;;;;;;;;;;4926194;28;92269;-79
2023/08/14 21:09:01;;;;;;;;;;;;;;;;;;4894837;28;120419;-78
2023/08/14 21:11:28;;;;;;;;;;;;;;;;;;4927977;28;92010;-79
2023/08/14 21:13:55;;;;;;;;;;;;;;;;;;4905598;28;121971;-79
2023/08/14 21:16:21;;;;;;;;;;;;;;;;;;4905164;28;121209;-77
2023/08/14 21:18:48;;;;;;;;;;;;;;;;;;4923400;28;117645;-78
2023/08/14 21:21:17;;;;;;;;;;;;;;;;;;4903345;28;120681;-78
2023/08/14 21:23:43;;;;;;;;;;;;;;;;;;4910682;28;122345;-78
2023/08/14 21:26:11;;;;;;;;;;;;;;;;;;4903981;28;119802;-78
2023/08/14 21:28:37;;;;;;;;;;;;;;;;;;4899965;28;94103;-78
2023/08/14 21:31:04;;;;;;;;;;;;;;;;;;4920364;28;108379;-78
2023/08/14 21:33:30;;;;;;;;;;;;;;;;;;4903964;28;116818;-77
2023/08/14 21:35:58;;;;;;;;;;;;;;;;;;4904829;28;121412;-78
2023/08/14 21:38:25;;;;;;;;;;;;;;;;;;4898019;28;116677;-78
2023/08/14 21:40:51;;;;;;;;;;;;;;;;;;4923296;28;92207;-78
2023/08/14 21:43:17;;;;;;;;;;;;;;;;;;4915396;28;121064;-79
2023/08/14 21:45:44;;;;;;;;;;;;;;;;;;4910374;28;118423;-78
2023/08/14 21:48:10;;;;;;;;;;;;;;;;;;4911604;28;105079;-79
2023/08/14 21:50:37;;;;;;;;;;;;;;;;;;4921354;28;119762;-78
2023/08/14 21:53:05;;;;;;;;;;;;;;;;;;4915063;28;116369;-79
2023/08/14 21:55:31;;;;;;;;;;;;;;;;;;4904460;28;121981;-80
2023/08/14 21:58:00;;;;;;;;;;;;;;;;;;4903020;28;108427;-79
2023/08/14 22:00:26;;;;;;;;;;;;;;;;;;4922231;28;91984;-78
2023/08/14 22:02:55;;;;;;;;;;;;;;;;;;4890643;28;121050;-77
2023/08/14 22:05:21;;;;;;;;;;;;;;;;;;4897954;28;116209;-78
2023/08/14 22:07:48;;;;;;;;;;;;;;;;;;4912847;28;92369;-79
2023/08/14 22:10:14;;;;;;;;;;;;;;;;;;4896352;28;123813;-78
2023/08/14 22:12:44;;;;;;;;;;;;;;;;;;4897729;28;117038;-79
2023/08/14 22:15:11;;;;;;;;;;;;;;;;;;4896223;28;119260;-79
2023/08/14 22:17:37;;;;;;;;;;;;;;;;;;4925694;28;118776;-79
2023/08/14 22:20:04;;;;;;;;;;;;;;;;;;4924205;28;99038;-79
2023/08/14 22:22:31;;;;;;;;;;;;;;;;;;4894992;28;120064;-79
2023/08/14 22:24:57;;;;;;;;;;;;;;;;;;4919295;28;113154;-79
2023/08/14 22:27:23;;;;;;;;;;;;;;;;;;4921604;28;92337;-78
2023/08/14 22:29:50;;;;;;;;;;;;;;;;;;4891011;28;121137;-79
2023/08/14 22:32:16;;;;;;;;;;;;;;;;;;4901893;28;116249;-78
2023/08/14 22:34:42;;;;;;;;;;;;;;;;;;4919798;28;120636;-79
2023/08/14 22:37:09;;;;;;;;;;;;;;;;;;4888879;28;121345;-79
2023/08/14 22:39:35;;;;;;;;;;;;;;;;;;4903916;28;92054;-78
2023/08/14 22:42:02;;;;;;;;;;;;;;;;;;4901950;28;122448;-79
2023/08/14 22:44:28;;;;;;;;;;;;;;;;;;4919862;28;117579;-78
2023/08/14 22:46:54;;;;;;;;;;;;;;;;;;4902041;28;118459;-78
2023/08/14 22:49:21;;;;;;;;;;;;;;;;;;4923501;28;104049;-79
2023/08/14 22:51:47;;;;;;;;;;;;;;;;;;4921422;28;115667;-79
2023/08/14 22:54:13;;;;;;;;;;;;;;;;;;4901777;28;110406;-79
2023/08/14 22:56:40;;;;;;;;;;;;;;;;;;4913258;28;122618;-79
2023/08/14 22:59:06;;;;;;;;;;;;;;;;;;4923242;28;91938;-79
2023/08/14 23:01:32;;;;;;;;;;;;;;;;;;4902149;28;120179;-78
2023/08/14 23:03:59;;;;;;;;;;;;;;;;;;4887827;28;115060;-77
2023/08/14 23:06:25;;;;;;;;;;;;;;;;;;4918130;28;116040;-78
2023/08/14 23:08:52;;;;;;;;;;;;;;;;;;4916146;28;120976;-78
2023/08/14 23:11:18;;;;;;;;;;;;;;;;;;4915578;28;116298;-78
2023/08/14 23:13:44;;;;;;;;;;;;;;;;;;4910542;28;120633;-78
2023/08/14 23:16:11;;;;;;;;;;;;;;;;;;4882363;28;121640;-78
2023/08/14 23:18:37;;;;;;;;;;;;;;;;;;4918111;28;117477;-79
2023/08/14 23:21:03;;;;;;;;;;;;;;;;;;4906046;28;92085;-79
2023/08/14 23:23:30;;;;;;;;;;;;;;;;;;4906885;28;91910;-78
2023/08/14 23:25:56;;;;;;;;;;;;;;;;;;4901700;28;124084;-78
2023/08/14 23:28:23;;;;;;;;;;;;;;;;;;4908279;28;104187;-79
2023/08/14 23:30:51;;;;;;;;;;;;;;;;;;4886165;28;116038;-79
2023/08/14 23:33:18;;;;;;;;;;;;;;;;;;4888990;28;119522;-78
2023/08/14 23:35:44;;;;;;;;;;;;;;;;;;4901121;28;109997;-78
2023/08/14 23:38:11;;;;;;;;;;;;;;;;;;4885860;28;116461;-78
2023/08/14 23:40:37;;;;;;;;;;;;;;;;;;4885648;28;122415;-78
2023/08/14 23:43:03;;;;;;;;;;;;;;;;;;4922157;28;121154;-78
2023/08/14 23:45:30;;;;;;;;;;;;;;;;;;4913406;28;120721;-78
2023/08/14 23:47:56;;;;;;;;;;;;;;;;;;4883410;28;122365;-78
2023/08/14 23:50:23;;;;;;;;;;;;;;;;;;4917463;28;117790;-78
2023/08/14 23:52:49;;;;;;;;;;;;;;;;;;4919330;28;119458;-78
2023/08/14 23:55:16;;;;;;;;;;;;;;;;;;4916732;28;120186;-78
2023/08/14 23:57:42;;;;;;;;;;;;;;;;;;4906966;28;116337;-78
